createdAt,value
2023-04-30T00:00:44.143Z,10.10
2023-04-30T00:03:11.041Z,10.00
2023-04-30T00:05:38.663Z,9.90
2023-04-30T00:08:05.688Z,10.00
2023-04-30T00:10:32.570Z,9.90
2023-04-30T00:12:59.371Z,9.80
2023-04-30T00:15:26.252Z,9.90
2023-04-30T00:17:53.407Z,9.90
2023-04-30T00:20:20.274Z,9.90
2023-04-30T00:22:47.136Z,10.00
2023-04-30T00:25:14.004Z,9.80
2023-04-30T00:27:41.168Z,9.80
2023-04-30T00:30:08.374Z,9.70
2023-04-30T00:32:35.244Z,9.80
2023-04-30T00:35:03.012Z,9.70
2023-04-30T00:37:29.811Z,9.60
2023-04-30T00:39:56.801Z,9.60
2023-04-30T00:42:24.244Z,9.60
2023-04-30T00:44:50.994Z,9.60
2023-04-30T00:47:17.830Z,9.50
2023-04-30T00:49:44.845Z,9.50
2023-04-30T00:52:11.987Z,9.60
2023-04-30T00:54:38.860Z,9.50
2023-04-30T00:57:07.783Z,9.40
2023-04-30T00:59:35.312Z,9.40
2023-04-30T01:02:03.671Z,9.40
2023-04-30T01:04:30.717Z,9.30
2023-04-30T01:06:57.996Z,9.30
2023-04-30T01:09:24.979Z,9.40
2023-04-30T01:12:10.845Z,9.40
2023-04-30T01:15:29.214Z,9.50
2023-04-30T01:18:15.373Z,9.50
2023-04-30T01:20:54.282Z,9.50
2023-04-30T01:23:34.102Z,9.40
2023-04-30T01:26:27.754Z,9.30
2023-04-30T01:28:57.241Z,9.20
2023-04-30T01:31:24.464Z,9.20
2023-04-30T01:33:51.330Z,9.20
2023-04-30T01:36:40.107Z,9.30
2023-04-30T01:39:32.657Z,9.30
2023-04-30T01:42:13.149Z,9.20
2023-04-30T01:44:58.145Z,9.10
2023-04-30T01:47:39.108Z,9.10
2023-04-30T01:50:06.036Z,9.00
2023-04-30T01:52:41.366Z,9.00
2023-04-30T01:55:18.163Z,9.10
2023-04-30T01:57:59.487Z,9.00
2023-04-30T02:00:27.732Z,9.10
2023-04-30T02:02:54.614Z,9.00
2023-04-30T02:05:21.751Z,9.00
2023-04-30T02:07:50.958Z,8.90
2023-04-30T02:10:22.318Z,9.00
2023-04-30T02:12:49.502Z,8.80
2023-04-30T02:15:16.350Z,8.70
2023-04-30T02:17:43.406Z,8.80
2023-04-30T02:20:10.766Z,8.80
2023-04-30T02:22:37.658Z,8.80
2023-04-30T02:25:04.812Z,8.90
2023-04-30T02:27:32.856Z,8.80
2023-04-30T02:30:00.621Z,8.80
2023-04-30T02:32:27.467Z,8.70
2023-04-30T02:34:54.303Z,8.70
2023-04-30T02:37:21.140Z,8.70
2023-04-30T02:39:47.973Z,8.70
2023-04-30T02:42:14.798Z,8.70
2023-04-30T02:44:41.811Z,8.70
2023-04-30T02:47:08.629Z,8.90
2023-04-30T02:49:35.574Z,8.80
2023-04-30T02:52:02.547Z,8.70
2023-04-30T02:54:29.312Z,8.70
2023-04-30T02:56:56.514Z,8.60
2023-04-30T02:59:23.274Z,8.60
2023-04-30T03:01:50.261Z,8.70
2023-04-30T03:04:17.100Z,8.70
2023-04-30T03:06:44.107Z,8.70
2023-04-30T03:09:11.128Z,8.70
2023-04-30T03:11:37.967Z,8.70
2023-04-30T03:14:05.087Z,8.70
2023-04-30T03:16:32.086Z,8.70
2023-04-30T03:18:58.956Z,8.80
2023-04-30T03:21:25.908Z,8.80
2023-04-30T03:23:52.756Z,8.70
2023-04-30T03:26:20.958Z,8.90
2023-04-30T03:28:47.898Z,8.90
2023-04-30T03:31:14.801Z,8.80
2023-04-30T03:33:41.711Z,8.80
2023-04-30T03:36:08.460Z,8.90
2023-04-30T03:38:35.199Z,8.90
2023-04-30T03:41:01.970Z,8.90
2023-04-30T03:43:28.859Z,9.00
2023-04-30T03:45:55.761Z,9.10
2023-04-30T03:48:22.539Z,9.30
2023-04-30T03:50:49.984Z,9.30
2023-04-30T03:53:16.848Z,9.50
2023-04-30T03:55:43.677Z,9.50
2023-04-30T03:58:10.673Z,9.60
2023-04-30T04:00:37.595Z,9.70
2023-04-30T04:03:04.503Z,9.70
2023-04-30T04:05:31.376Z,9.80
2023-04-30T04:07:58.215Z,9.80
2023-04-30T04:10:25.129Z,9.70
2023-04-30T04:12:51.934Z,9.80
2023-04-30T04:15:18.781Z,9.70
2023-04-30T04:17:45.718Z,9.80
2023-04-30T04:20:14.124Z,9.80
2023-04-30T04:22:41.118Z,9.80
2023-04-30T04:25:08.834Z,9.80
2023-04-30T04:27:35.792Z,9.90
2023-04-30T04:30:03.819Z,9.90
2023-04-30T04:32:32.722Z,10.00
2023-04-30T04:34:59.727Z,10.10
2023-04-30T04:37:27.016Z,10.10
2023-04-30T04:39:53.967Z,10.20
2023-04-30T04:42:21.262Z,10.20
2023-04-30T04:44:48.087Z,10.30
2023-04-30T04:47:16.746Z,10.30
2023-04-30T04:49:43.573Z,10.40
2023-04-30T04:52:10.412Z,10.50
2023-04-30T04:54:37.244Z,10.40
2023-04-30T04:57:04.116Z,10.60
2023-04-30T04:59:31.169Z,10.60
2023-04-30T05:01:58.024Z,10.70
2023-04-30T05:04:24.893Z,10.80
2023-04-30T05:06:51.735Z,10.60
2023-04-30T05:09:18.536Z,10.60
2023-04-30T05:11:46.286Z,10.80
2023-04-30T05:14:13.196Z,10.80
2023-04-30T05:16:40.333Z,10.80
2023-04-30T05:19:09.666Z,10.60
2023-04-30T05:21:36.572Z,10.70
2023-04-30T05:24:03.922Z,10.80
2023-04-30T05:26:30.787Z,10.80
2023-04-30T05:28:57.729Z,11.00
2023-04-30T05:31:24.637Z,11.00
2023-04-30T05:33:51.465Z,11.10
2023-04-30T05:36:18.343Z,11.20
2023-04-30T05:38:45.492Z,11.20
2023-04-30T05:41:12.972Z,11.20
2023-04-30T05:43:39.862Z,11.20
2023-04-30T05:46:06.872Z,11.30
2023-04-30T05:48:33.813Z,11.40
2023-04-30T05:51:00.910Z,11.30
2023-04-30T05:53:27.810Z,11.30
2023-04-30T05:55:54.655Z,11.40
2023-04-30T05:58:21.485Z,11.50
2023-04-30T06:00:52.145Z,11.60
2023-04-30T06:03:19.665Z,11.60
2023-04-30T06:05:49.765Z,11.70
2023-04-30T06:08:16.658Z,11.70
2023-04-30T06:10:43.548Z,11.60
2023-04-30T06:13:10.371Z,11.50
2023-04-30T06:15:37.227Z,11.60
2023-04-30T06:18:04.086Z,11.70
2023-04-30T06:20:31.017Z,11.70
2023-04-30T06:22:57.854Z,11.80
2023-04-30T06:25:24.725Z,11.90
2023-04-30T06:27:53.985Z,12.10
2023-04-30T06:30:21.171Z,12.00
2023-04-30T06:32:48.124Z,12.10
2023-04-30T06:35:15.167Z,12.20
2023-04-30T06:37:42.055Z,12.20
2023-04-30T06:40:09.174Z,12.10
2023-04-30T06:42:36.092Z,11.90
2023-04-30T06:45:03.946Z,11.70
2023-04-30T06:47:34.761Z,11.60
2023-04-30T06:50:02.266Z,11.70
2023-04-30T06:52:29.948Z,11.70
2023-04-30T06:54:57.091Z,11.90
2023-04-30T06:57:24.788Z,11.80
2023-04-30T06:59:51.808Z,11.70
2023-04-30T07:02:21.254Z,11.80
2023-04-30T07:04:49.467Z,11.80
2023-04-30T07:07:16.444Z,11.80
2023-04-30T07:09:43.302Z,11.90
2023-04-30T07:12:12.025Z,12.00
2023-04-30T07:14:38.943Z,11.90
2023-04-30T07:17:06.103Z,12.10
2023-04-30T07:19:32.952Z,12.10
2023-04-30T07:21:59.764Z,12.10
2023-04-30T07:24:26.530Z,12.30
2023-04-30T07:26:53.309Z,12.20
2023-04-30T07:29:20.227Z,12.40
2023-04-30T07:31:47.046Z,12.50
2023-04-30T07:34:13.883Z,12.20
2023-04-30T07:36:40.774Z,12.30
2023-04-30T07:39:08.116Z,12.30
2023-04-30T07:41:35.003Z,12.20
2023-04-30T07:44:01.910Z,12.20
2023-04-30T07:46:28.835Z,12.20
2023-04-30T07:48:55.701Z,12.10
2023-04-30T07:51:22.731Z,12.10
2023-04-30T07:53:49.540Z,11.90
2023-04-30T07:56:16.498Z,12.00
2023-04-30T07:58:43.277Z,12.20
2023-04-30T08:01:10.090Z,12.30
2023-04-30T08:03:37.077Z,12.50
2023-04-30T08:06:05.316Z,12.50
2023-04-30T08:08:32.115Z,12.50
2023-04-30T08:10:58.909Z,12.50
2023-04-30T08:13:25.848Z,12.50
2023-04-30T08:15:52.655Z,12.70
2023-04-30T08:18:19.437Z,12.70
2023-04-30T08:20:46.264Z,12.70
2023-04-30T08:23:13.024Z,12.70
2023-04-30T08:25:39.867Z,12.70
2023-04-30T08:28:07.029Z,12.70
2023-04-30T08:30:33.820Z,12.60
2023-04-30T08:33:00.861Z,12.80
2023-04-30T08:35:29.772Z,13.00
2023-04-30T08:37:56.773Z,13.20
2023-04-30T08:40:33.812Z,13.20
2023-04-30T08:43:11.842Z,13.20
2023-04-30T08:45:38.838Z,13.10
2023-04-30T08:48:10.722Z,13.10
2023-04-30T08:50:37.586Z,13.20
2023-04-30T08:53:04.506Z,13.20
2023-04-30T08:55:34.023Z,13.20
2023-04-30T08:58:00.840Z,13.10
2023-04-30T09:00:27.848Z,13.10
2023-04-30T09:02:54.953Z,13.20
2023-04-30T09:05:21.910Z,13.20
2023-04-30T09:08:02.536Z,13.20
2023-04-30T09:10:32.869Z,13.00
2023-04-30T09:13:03.723Z,13.20
2023-04-30T09:15:31.911Z,13.10
2023-04-30T09:18:08.026Z,13.20
2023-04-30T09:20:35.370Z,13.20
2023-04-30T09:23:11.631Z,13.20
2023-04-30T09:25:42.704Z,13.30
2023-04-30T09:28:13.777Z,13.20
2023-04-30T09:30:42.127Z,13.30
2023-04-30T09:33:11.865Z,13.60
2023-04-30T09:35:41.860Z,13.40
2023-04-30T09:38:24.909Z,13.50
2023-04-30T09:40:51.798Z,13.90
2023-04-30T09:43:18.638Z,13.70
2023-04-30T09:45:49.084Z,13.80
2023-04-30T09:48:17.816Z,14.00
2023-04-30T09:50:46.266Z,14.00
2023-04-30T09:53:14.377Z,13.80
2023-04-30T09:55:45.967Z,14.30
2023-04-30T09:58:14.061Z,14.60
2023-04-30T10:00:42.141Z,14.50
2023-04-30T10:03:11.234Z,14.30
2023-04-30T10:05:49.079Z,14.50
2023-04-30T10:08:28.844Z,14.60
2023-04-30T10:11:03.920Z,14.80
2023-04-30T10:14:10.490Z,14.90
2023-04-30T10:16:58.860Z,15.10
2023-04-30T10:19:30.225Z,15.00
2023-04-30T10:21:57.676Z,14.90
2023-04-30T10:24:24.599Z,14.80
2023-04-30T10:26:51.553Z,14.80
2023-04-30T10:29:18.961Z,14.90
2023-04-30T10:31:48.078Z,15.10
2023-04-30T10:34:17.909Z,14.80
2023-04-30T10:36:50.422Z,14.90
2023-04-30T10:39:27.599Z,14.80
2023-04-30T10:42:05.791Z,14.70
2023-04-30T10:44:35.100Z,14.50
2023-04-30T10:47:02.635Z,14.50
2023-04-30T10:49:30.017Z,14.60
2023-04-30T10:52:00.750Z,14.40
2023-04-30T10:54:29.558Z,14.40
2023-04-30T10:57:17.960Z,14.50
2023-04-30T10:59:53.247Z,14.40
2023-04-30T11:02:20.651Z,14.40
2023-04-30T11:05:07.538Z,14.30
2023-04-30T11:07:34.936Z,14.30
2023-04-30T11:10:02.579Z,14.30
2023-04-30T11:12:29.717Z,14.10
2023-04-30T11:15:26.738Z,14.10
2023-04-30T11:18:01.085Z,14.30
2023-04-30T11:20:28.303Z,14.30
2023-04-30T11:23:38.513Z,14.40
2023-04-30T11:26:07.944Z,14.50
2023-04-30T11:28:36.674Z,14.70
2023-04-30T11:31:04.107Z,14.90
2023-04-30T11:33:34.600Z,14.90
2023-04-30T11:36:02.240Z,14.80
2023-04-30T11:38:34.538Z,14.90
2023-04-30T11:41:02.667Z,15.10
2023-04-30T11:43:31.322Z,15.10
2023-04-30T11:46:06.415Z,15.10
2023-04-30T11:48:38.124Z,15.10
2023-04-30T11:51:22.181Z,15.00
2023-04-30T11:53:50.712Z,15.00
2023-04-30T11:56:25.736Z,14.70
2023-04-30T11:58:53.500Z,14.70
2023-04-30T12:01:21.145Z,15.00
2023-04-30T12:03:50.335Z,15.00
2023-04-30T12:06:28.738Z,15.20
2023-04-30T12:08:57.260Z,15.30
2023-04-30T12:11:26.265Z,15.40
2023-04-30T12:13:56.960Z,15.20
2023-04-30T12:16:25.621Z,15.20
2023-04-30T12:18:52.990Z,15.20
2023-04-30T12:21:23.056Z,15.30
2023-04-30T12:23:50.059Z,15.20
2023-04-30T12:26:17.873Z,15.40
2023-04-30T12:28:47.935Z,15.10
2023-04-30T12:31:14.729Z,15.20
2023-04-30T12:33:41.797Z,15.30
2023-04-30T12:36:12.136Z,15.20
2023-04-30T12:38:43.885Z,15.10
2023-04-30T12:41:15.388Z,14.80
2023-04-30T12:43:42.235Z,14.60
2023-04-30T12:46:09.062Z,14.60
2023-04-30T12:48:47.303Z,14.90
2023-04-30T12:51:20.094Z,14.90
2023-04-30T12:53:47.074Z,15.00
2023-04-30T12:56:16.366Z,15.00
2023-04-30T12:58:50.208Z,15.10
2023-04-30T13:01:24.612Z,15.00
2023-04-30T13:03:54.811Z,14.80
2023-04-30T13:06:23.415Z,14.90
2023-04-30T13:08:58.326Z,14.90
2023-04-30T13:11:27.027Z,14.90
2023-04-30T13:13:57.295Z,14.80
2023-04-30T13:16:27.361Z,14.90
2023-04-30T13:18:55.009Z,15.00
2023-04-30T13:21:22.529Z,15.00
2023-04-30T13:23:53.344Z,14.90
2023-04-30T13:26:23.318Z,15.00
2023-04-30T13:28:50.456Z,14.90
2023-04-30T13:31:17.335Z,14.90
2023-04-30T13:33:44.175Z,14.90
2023-04-30T13:36:11.093Z,15.00
2023-04-30T13:38:39.308Z,15.10
2023-04-30T13:41:06.592Z,15.10
2023-04-30T13:43:33.480Z,15.10
2023-04-30T13:46:00.318Z,14.80
2023-04-30T13:48:27.237Z,14.80
2023-04-30T13:50:54.515Z,14.90
2023-04-30T13:53:21.289Z,14.90
2023-04-30T13:55:48.214Z,15.00
2023-04-30T13:58:15.820Z,15.10
2023-04-30T14:00:43.012Z,15.10
2023-04-30T14:03:10.330Z,15.00
2023-04-30T14:05:37.643Z,14.90
2023-04-30T14:08:05.482Z,14.70
2023-04-30T14:10:32.927Z,14.70
2023-04-30T14:12:59.766Z,14.50
2023-04-30T14:15:27.655Z,14.40
2023-04-30T14:17:54.555Z,14.40
2023-04-30T14:20:21.484Z,14.40
2023-04-30T14:22:48.249Z,14.50
2023-04-30T14:25:15.081Z,14.50
2023-04-30T14:27:42.013Z,14.40
2023-04-30T14:30:10.148Z,14.50
2023-04-30T14:32:37.716Z,14.60
2023-04-30T14:35:05.345Z,14.50
2023-04-30T14:37:32.137Z,14.30
2023-04-30T14:40:00.394Z,14.20
2023-04-30T14:42:27.312Z,14.30
2023-04-30T14:44:54.138Z,14.30
2023-04-30T14:47:21.503Z,14.30
2023-04-30T14:49:50.278Z,14.20
2023-04-30T14:52:17.029Z,14.30
2023-04-30T14:54:44.286Z,14.30
2023-04-30T14:57:11.431Z,14.30
2023-04-30T14:59:40.060Z,14.20
2023-04-30T15:02:07.606Z,14.10
2023-04-30T15:04:34.519Z,14.10
2023-04-30T15:07:02.630Z,14.10
2023-04-30T15:09:29.564Z,14.00
2023-04-30T15:11:56.570Z,13.90
2023-04-30T15:14:23.447Z,13.80
2023-04-30T15:16:50.300Z,13.80
2023-04-30T15:19:17.139Z,13.60
2023-04-30T15:21:43.958Z,13.70
2023-04-30T15:24:10.804Z,13.70
2023-04-30T15:26:37.622Z,13.70
2023-04-30T15:29:04.460Z,13.60
2023-04-30T15:31:32.892Z,13.60
2023-04-30T15:33:59.793Z,13.60
2023-04-30T15:36:27.305Z,13.60
2023-04-30T15:38:54.264Z,13.80
2023-04-30T15:41:21.751Z,13.70
2023-04-30T15:43:48.612Z,13.60
2023-04-30T15:46:17.180Z,13.60
2023-04-30T15:48:44.014Z,13.60
2023-04-30T15:51:10.974Z,13.70
2023-04-30T15:53:37.847Z,13.70
2023-04-30T15:56:05.159Z,13.60
2023-04-30T15:58:31.988Z,13.50
2023-04-30T16:00:58.806Z,13.50
2023-04-30T16:03:25.757Z,13.60
2023-04-30T16:05:52.598Z,13.50
2023-04-30T16:08:19.719Z,13.40
2023-04-30T16:10:47.061Z,13.50
2023-04-30T16:13:13.900Z,13.60
2023-04-30T16:15:40.791Z,13.40
2023-04-30T16:18:08.050Z,13.30
2023-04-30T16:20:36.924Z,13.30
2023-04-30T16:23:05.163Z,13.30
2023-04-30T16:25:32.386Z,13.10
2023-04-30T16:27:59.176Z,13.10
2023-04-30T16:30:26.096Z,13.00
2023-04-30T16:32:53.040Z,13.00
2023-04-30T16:35:19.986Z,13.00
2023-04-30T16:37:46.777Z,13.00
2023-04-30T16:40:13.551Z,13.00
2023-04-30T16:42:40.419Z,12.90
2023-04-30T16:45:08.092Z,12.90
2023-04-30T16:47:34.942Z,12.80
2023-04-30T16:50:02.089Z,12.80
2023-04-30T16:52:29.642Z,12.80
2023-04-30T16:54:56.397Z,12.80
2023-04-30T16:57:25.126Z,12.80
2023-04-30T16:59:52.412Z,12.70
2023-04-30T17:02:19.539Z,12.80
2023-04-30T17:04:46.421Z,12.80
2023-04-30T17:07:13.181Z,12.70
2023-04-30T17:09:39.961Z,12.60
2023-04-30T17:12:07.558Z,12.60
2023-04-30T17:14:34.542Z,12.60
2023-04-30T17:17:01.765Z,12.60
2023-04-30T17:19:28.576Z,12.60
2023-04-30T17:21:55.970Z,12.50
2023-04-30T17:24:24.177Z,12.50
2023-04-30T17:26:51.543Z,12.50
2023-04-30T17:29:19.756Z,12.40
2023-04-30T17:31:47.345Z,12.50
2023-04-30T17:34:14.284Z,12.50
2023-04-30T17:36:41.949Z,12.40
2023-04-30T17:39:08.776Z,12.40
2023-04-30T17:41:35.758Z,12.40
2023-04-30T17:44:02.619Z,12.30
2023-04-30T17:46:29.648Z,12.30
2023-04-30T17:48:56.494Z,12.30
2023-04-30T17:51:23.360Z,12.30
2023-04-30T17:53:50.337Z,12.20
2023-04-30T17:56:17.694Z,12.20
2023-04-30T17:58:45.864Z,12.20
2023-04-30T18:01:13.452Z,12.30
2023-04-30T18:03:40.453Z,12.20
2023-04-30T18:06:07.572Z,12.10
2023-04-30T18:08:34.566Z,12.10
2023-04-30T18:11:04.595Z,12.10
2023-04-30T18:13:31.604Z,12.10
2023-04-30T18:15:58.575Z,12.20
2023-04-30T18:18:25.350Z,12.20
2023-04-30T18:20:53.110Z,12.20
2023-04-30T18:23:20.934Z,12.20
2023-04-30T18:25:48.010Z,12.30
2023-04-30T18:28:15.108Z,12.20
2023-04-30T18:30:42.475Z,12.30
2023-04-30T18:33:09.336Z,12.30
2023-04-30T18:35:36.733Z,12.20
2023-04-30T18:38:03.604Z,12.20
2023-04-30T18:40:31.006Z,12.20
2023-04-30T18:42:57.819Z,12.20
2023-04-30T18:45:24.808Z,12.20
2023-04-30T18:47:51.900Z,12.00
2023-04-30T18:50:19.572Z,12.00
2023-04-30T18:52:46.659Z,12.00
2023-04-30T18:55:14.067Z,12.00
2023-04-30T18:57:42.486Z,12.00
2023-04-30T19:00:10.561Z,12.00
2023-04-30T19:02:37.432Z,12.00
2023-04-30T19:05:05.177Z,12.00
2023-04-30T19:07:32.124Z,12.00
2023-04-30T19:09:59.334Z,11.90
2023-04-30T19:12:26.212Z,11.90
2023-04-30T19:14:53.037Z,11.90
2023-04-30T19:17:21.823Z,11.80
2023-04-30T19:19:50.136Z,11.70
2023-04-30T19:22:17.463Z,11.70
2023-04-30T19:24:44.439Z,11.70
2023-04-30T19:27:11.528Z,11.70
2023-04-30T19:29:39.546Z,11.60
2023-04-30T19:32:07.006Z,11.70
2023-04-30T19:34:34.606Z,11.70
2023-04-30T19:37:01.671Z,11.70
2023-04-30T19:39:31.892Z,11.70
2023-04-30T19:41:58.958Z,11.80
2023-04-30T19:44:27.717Z,11.70
2023-04-30T19:46:54.611Z,11.80
2023-04-30T19:49:24.677Z,11.70
2023-04-30T19:51:53.235Z,11.70
2023-04-30T19:54:20.183Z,11.60
2023-04-30T19:56:47.347Z,11.70
2023-04-30T19:59:14.418Z,11.70
2023-04-30T20:01:42.395Z,11.70
2023-04-30T20:04:09.996Z,11.70
2023-04-30T20:06:37.060Z,11.80
2023-04-30T20:09:04.130Z,11.70
2023-04-30T20:11:31.020Z,11.70
2023-04-30T20:13:57.876Z,11.70
2023-04-30T20:16:24.756Z,11.70
2023-04-30T20:18:54.471Z,12.00
2023-04-30T20:21:21.487Z,12.00
2023-04-30T20:23:48.342Z,11.90
2023-04-30T20:26:15.151Z,11.90
2023-04-30T20:28:41.970Z,11.90
2023-04-30T20:31:09.736Z,11.90
2023-04-30T20:33:36.675Z,11.90
2023-04-30T20:36:03.742Z,11.90
2023-04-30T20:38:30.993Z,11.80
2023-04-30T20:40:58.764Z,11.80
2023-04-30T20:43:25.728Z,11.70
2023-04-30T20:45:56.260Z,11.70
2023-04-30T20:48:23.060Z,11.60
2023-04-30T20:50:49.919Z,11.50
2023-04-30T20:53:16.759Z,11.40
2023-04-30T20:55:43.766Z,11.30
2023-04-30T20:58:10.985Z,11.50
2023-04-30T21:00:37.811Z,11.40
2023-04-30T21:03:04.759Z,11.30
2023-04-30T21:05:32.292Z,11.20
2023-04-30T21:08:01.257Z,11.30
2023-04-30T21:10:35.357Z,11.20
2023-04-30T21:13:08.819Z,11.10
2023-04-30T21:15:36.507Z,11.20
2023-04-30T21:18:03.711Z,11.30
2023-04-30T21:20:31.509Z,11.30
2023-04-30T21:22:58.662Z,11.30
2023-04-30T21:25:25.625Z,11.10
2023-04-30T21:27:52.451Z,11.10
2023-04-30T21:30:19.405Z,11.10
2023-04-30T21:32:47.209Z,11.10
2023-04-30T21:35:14.509Z,11.00
2023-04-30T21:37:42.153Z,11.10
2023-04-30T21:40:09.522Z,11.10
2023-04-30T21:42:36.425Z,11.10
2023-04-30T21:45:03.452Z,11.10
2023-04-30T21:47:30.874Z,11.10
2023-04-30T21:49:58.782Z,11.00
2023-04-30T21:52:25.997Z,11.00
2023-04-30T21:54:52.777Z,11.00
2023-04-30T21:57:19.701Z,11.00
2023-04-30T21:59:46.536Z,11.00
2023-04-30T22:02:23.922Z,11.00
2023-04-30T22:04:51.353Z,11.00
2023-04-30T22:07:18.301Z,11.00
2023-04-30T22:09:45.486Z,11.10
2023-04-30T22:12:12.386Z,11.00
2023-04-30T22:14:39.242Z,10.90
2023-04-30T22:17:06.109Z,10.90
2023-04-30T22:19:32.993Z,10.90
2023-04-30T22:21:59.765Z,10.70
2023-04-30T22:24:26.532Z,10.80
2023-04-30T22:26:53.355Z,10.60
2023-04-30T22:29:20.417Z,10.60
2023-04-30T22:31:47.535Z,10.60
2023-04-30T22:34:15.584Z,10.60
2023-04-30T22:36:43.589Z,10.60
2023-04-30T22:39:10.363Z,10.60
2023-04-30T22:41:37.370Z,10.50
2023-04-30T22:44:05.349Z,10.40
2023-04-30T22:46:34.824Z,10.40
2023-04-30T22:49:01.788Z,10.30
2023-04-30T22:51:28.661Z,10.30
2023-04-30T22:53:56.424Z,10.30
2023-04-30T22:56:23.387Z,10.20
2023-04-30T22:58:50.160Z,10.10
2023-04-30T23:01:17.515Z,10.10
2023-04-30T23:03:44.634Z,10.00
2023-04-30T23:06:11.783Z,10.00
2023-04-30T23:08:38.688Z,9.90
2023-04-30T23:11:05.765Z,9.90
2023-04-30T23:13:32.824Z,9.80
2023-04-30T23:16:01.314Z,9.90
2023-04-30T23:18:28.417Z,9.80
2023-04-30T23:20:58.810Z,9.70
2023-04-30T23:23:26.541Z,9.60
2023-04-30T23:25:54.437Z,9.60
2023-04-30T23:28:21.591Z,9.60
2023-04-30T23:30:55.041Z,9.60
2023-04-30T23:33:22.105Z,9.60
2023-04-30T23:35:48.992Z,9.60
2023-04-30T23:38:16.352Z,9.60
2023-04-30T23:40:43.856Z,9.60
2023-04-30T23:43:11.565Z,9.50
2023-04-30T23:45:45.009Z,9.40
2023-04-30T23:48:12.037Z,9.50
2023-04-30T23:50:38.906Z,9.60
2023-04-30T23:53:05.849Z,9.70
2023-04-30T23:55:32.898Z,9.70
2023-04-30T23:57:59.731Z,9.70
